CheckWX is a tool to help pilots better visualize weather data.  It is not intended as a substitute for an official pre-flight weather briefing.

00:27:58 UTC

KLOM METAR
Wings Field Airport
Philadelphia, Pennsylvania, USA
Current

33 mins ago

KLOM 162355Z AUTO 04003KT 10SM BKN060 OVC100 22/18 A3002 RMK AO2 T02230183 10272 20222 402760149
Observed
Sep-16 @ 23:55 UTC
Wind
  • 040° at 3 KTS
Visibility
10 SM
Flight Rules
VFR
Cloud Levels
  • Broken at 6,000' AGL
  • Overcast at 10,000' AGL
Temperature
22°C / 72°F
Dewpoint
18°C / 64°F
Humidity
78%
Altimeter
30.02" Hg
Pressure
1016.62 hPa
Previous

53 mins ago

KLOM 162335Z AUTO 06003KT 10SM BKN060 OVC085 23/18 A3001 RMK AO2 T02290181
Observed
Sep-16 @ 23:35 UTC
Wind
  • 060° at 3 KTS
Visibility
10 SM
Flight Rules
VFR
Cloud Levels
  • Broken at 6,000' AGL
  • Overcast at 8,500' AGL
Temperature
23°C / 73°F
Dewpoint
18°C / 64°F
Humidity
74%
Altimeter
30.01" Hg
Pressure
1016.22 hPa
Previous

1 hour ago

KLOM 162315Z AUTO 05003KT 10SM SCT060 OVC085 23/18 A3001 RMK AO2 T02310182
Observed
Sep-16 @ 23:15 UTC
Wind
  • 050° at 3 KTS
Visibility
10 SM
Flight Rules
VFR
Cloud Levels
  • Scattered at 6,000' AGL
  • Overcast at 8,500' AGL
Temperature
23°C / 73°F
Dewpoint
18°C / 64°F
Humidity
74%
Altimeter
30.01" Hg
Pressure
1016.22 hPa